Time;durP1;ratioP1;P1;durP2;ratioP2;P2;SDS_P1;SDS_P2;PMS_P1;PMS_P2;Temp;Humidity;BMP_temperature;BMP_pressure;BME280_temperature;BME280_humidity;BME280_pressure;Samples;Min_cycle;Max_cycle;Signal;HPM_P1;HPM_P2
2021/11/03 00:01:12;;;;;;;1.13;0.90;;;11.30;99.90;;;;;;5072157;28;20024;-82
2021/11/03 00:03:38;;;;;;;0.65;0.65;;;11.30;99.90;;;;;;5073409;28;20017;-83
2021/11/03 00:06:04;;;;;;;0.73;0.73;;;11.30;99.90;;;;;;5083873;28;20539;-83
2021/11/03 00:08:30;;;;;;;0.95;0.88;;;11.40;99.90;;;;;;5093681;28;20020;-83
2021/11/03 00:10:56;;;;;;;3.65;0.73;;;11.40;99.90;;;;;;5093581;28;20106;-82
2021/11/03 00:13:24;;;;;;;0.60;0.60;;;11.50;99.90;;;;;;5093588;28;20020;-83
2021/11/03 00:15:52;;;;;;;0.73;0.70;;;11.50;99.90;;;;;;5093353;28;20077;-82
2021/11/03 00:18:17;;;;;;;0.50;0.50;;;11.60;99.90;;;;;;5093560;28;20024;-82
2021/11/03 00:20:44;;;;;;;0.73;0.52;;;11.60;99.90;;;;;;5093545;28;20081;-82
2021/11/03 00:23:11;;;;;;;2.55;0.75;;;11.60;99.90;;;;;;5093306;28;20036;-83
2021/11/03 00:25:40;;;;;;;0.73;0.73;;;11.60;99.90;;;;;;5093230;28;20020;-82
2021/11/03 00:28:09;;;;;;;2.75;0.70;;;11.60;99.90;;;;;;5075186;28;20023;-82
2021/11/03 00:30:35;;;;;;;0.50;0.50;;;11.70;99.90;;;;;;5093281;28;20020;-82
2021/11/03 00:33:02;;;;;;;0.70;0.70;;;11.80;99.90;;;;;;5093345;28;20099;-82
2021/11/03 00:35:28;;;;;;;0.60;0.50;;;11.80;99.90;;;;;;5087751;28;20021;-83
2021/11/03 00:37:53;;;;;;;1.27;1.17;;;11.70;99.90;;;;;;5073005;28;20031;-83
2021/11/03 00:40:19;;;;;;;1.30;0.70;;;11.80;99.90;;;;;;5072980;28;20032;-83
2021/11/03 00:42:46;;;;;;;0.85;0.57;;;11.70;99.90;;;;;;5072432;28;20020;-83
2021/11/03 00:45:12;;;;;;;0.70;0.70;;;11.70;99.90;;;;;;5072776;28;20490;-83
2021/11/03 00:47:38;;;;;;;0.70;0.65;;;11.80;99.90;;;;;;5072725;28;20028;-82
2021/11/03 00:50:05;;;;;;;3.42;0.90;;;11.80;99.90;;;;;;5072781;28;20033;-83
2021/11/03 00:52:31;;;;;;;1.20;0.80;;;11.80;99.90;;;;;;5056602;28;20108;-83
2021/11/03 00:54:57;;;;;;;0.60;0.60;;;11.90;99.90;;;;;;5052696;28;20029;-83
2021/11/03 00:57:23;;;;;;;2.58;0.82;;;11.90;99.90;;;;;;5052623;28;20025;-84
2021/11/03 00:59:49;;;;;;;0.85;0.60;;;11.90;99.90;;;;;;5052717;28;20075;-83
2021/11/03 01:02:18;;;;;;;0.75;0.60;;;11.90;99.90;;;;;;5034747;28;20111;-82
2021/11/03 01:04:44;;;;;;;3.22;0.52;;;11.90;99.90;;;;;;5052614;28;20078;-82
2021/11/03 01:07:13;;;;;;;2.28;0.88;;;11.90;99.90;;;;;;5072169;28;20402;-83
2021/11/03 01:09:39;;;;;;;1.23;0.80;;;11.90;99.90;;;;;;5072703;28;20067;-83
2021/11/03 01:12:06;;;;;;;1.48;0.88;;;11.90;99.90;;;;;;5072640;28;20056;-83
2021/11/03 01:14:32;;;;;;;0.65;0.65;;;11.90;99.90;;;;;;5072546;28;20029;-82
2021/11/03 01:16:58;;;;;;;0.60;0.60;;;11.90;99.90;;;;;;5071115;28;20512;-82
2021/11/03 01:19:24;;;;;;;1.90;0.77;;;11.90;99.90;;;;;;5072629;28;20107;-83
2021/11/03 01:21:49;;;;;;;0.75;0.60;;;11.80;99.90;;;;;;5072215;28;20056;-82
2021/11/03 01:24:15;;;;;;;1.92;0.60;;;11.80;99.90;;;;;;5072621;28;20074;-82
2021/11/03 01:26:41;;;;;;;1.67;0.82;;;11.80;99.90;;;;;;5072404;28;20017;-83
2021/11/03 01:29:07;;;;;;;0.70;0.65;;;11.80;99.90;;;;;;5054498;28;20028;-83
2021/11/03 01:31:34;;;;;;;1.23;0.60;;;11.80;99.90;;;;;;5072470;28;20495;-82
2021/11/03 01:34:02;;;;;;;2.00;0.90;;;11.80;99.90;;;;;;5054408;28;20028;-82
2021/11/03 01:36:28;;;;;;;1.80;0.90;;;11.80;99.90;;;;;;5067901;28;20119;-83
2021/11/03 01:38:53;;;;;;;0.65;0.50;;;11.80;99.90;;;;;;5092483;28;20103;-83
2021/11/03 01:41:19;;;;;;;1.17;0.65;;;11.80;99.90;;;;;;5092673;28;20022;-83
2021/11/03 01:44:02;;;;;;;0.60;0.60;;;11.70;99.90;;;;;;5092484;28;20095;-83
2021/11/03 01:46:35;;;;;;;1.80;0.88;;;11.70;99.90;;;;;;5092470;28;20085;-82
2021/11/03 01:49:05;;;;;;;0.90;0.90;;;11.60;99.90;;;;;;5074254;28;20020;-83
2021/11/03 01:51:39;;;;;;;2.30;1.00;;;11.60;99.90;;;;;;5092499;28;20032;-83
2021/11/03 01:54:10;;;;;;;1.63;0.70;;;11.60;99.90;;;;;;5074780;28;20024;-82
2021/11/03 01:56:37;;;;;;;3.45;1.20;;;11.60;99.90;;;;;;5077899;28;20116;-83
2021/11/03 01:59:13;;;;;;;2.85;0.80;;;11.60;99.90;;;;;;5096148;28;20056;-83
2021/11/03 02:01:39;;;;;;;0.77;0.77;;;11.60;99.90;;;;;;5096228;28;20478;-83
2021/11/03 02:04:05;;;;;;;0.73;0.73;;;11.60;99.90;;;;;;5095975;28;20020;-82
2021/11/03 02:06:31;;;;;;;0.90;0.80;;;11.60;99.90;;;;;;5081146;28;20033;-83
2021/11/03 02:08:57;;;;;;;0.70;0.70;;;11.60;99.90;;;;;;5075703;28;20093;-83
2021/11/03 02:11:25;;;;;;;0.85;0.50;;;11.60;99.90;;;;;;5075620;28;20016;-82
2021/11/03 02:13:52;;;;;;;1.85;0.73;;;11.60;99.90;;;;;;5075625;28;20107;-83
2021/11/03 02:16:20;;;;;;;1.45;1.00;;;11.60;99.90;;;;;;5075464;28;20673;-83
2021/11/03 02:18:47;;;;;;;1.75;0.82;;;11.70;99.90;;;;;;5075494;28;20025;-83
2021/11/03 02:21:26;;;;;;;1.35;0.80;;;11.60;99.90;;;;;;5075272;28;20044;-83
2021/11/03 02:24:07;;;;;;;1.55;0.88;;;11.70;99.90;;;;;;5075512;28;20490;-83
2021/11/03 02:26:42;;;;;;;0.98;0.80;;;11.70;99.90;;;;;;5075288;28;20035;-82
2021/11/03 02:29:09;;;;;;;2.80;0.85;;;11.70;99.90;;;;;;5075529;28;20031;-84
2021/11/03 02:31:46;;;;;;;0.80;0.80;;;11.70;99.90;;;;;;5075416;28;20033;-83
2021/11/03 02:34:20;;;;;;;1.10;1.05;;;11.70;99.90;;;;;;5075341;28;20029;-83
2021/11/03 02:36:52;;;;;;;2.35;0.98;;;11.70;99.90;;;;;;5091348;28;20020;-83
2021/11/03 02:39:22;;;;;;;0.85;0.85;;;11.70;99.90;;;;;;5077182;28;20031;-83
2021/11/03 02:41:48;;;;;;;2.33;1.55;;;11.70;99.90;;;;;;5076476;28;20431;-83
2021/11/03 02:44:16;;;;;;;1.45;1.10;;;11.70;99.90;;;;;;5075145;28;20027;-83
2021/11/03 02:46:43;;;;;;;1.25;1.05;;;11.70;99.90;;;;;;5074915;28;20112;-82
2021/11/03 02:49:09;;;;;;;1.27;1.10;;;11.70;99.90;;;;;;5074960;28;20028;-82
2021/11/03 02:51:38;;;;;;;1.20;1.10;;;11.80;99.90;;;;;;5074825;28;20078;-83
2021/11/03 02:54:13;;;;;;;2.58;1.10;;;11.80;99.90;;;;;;5074875;28;20025;-83
2021/11/03 02:56:45;;;;;;;2.25;1.00;;;11.80;99.90;;;;;;5074729;28;20033;-82
2021/11/03 02:59:12;;;;;;;5.57;1.30;;;11.80;99.90;;;;;;5074698;28;20028;-83
2021/11/03 03:01:41;;;;;;;1.17;1.08;;;11.80;99.90;;;;;;5074807;28;20102;-83
2021/11/03 03:04:10;;;;;;;1.30;1.20;;;11.80;99.90;;;;;;5074655;28;20043;-83
2021/11/03 03:06:37;;;;;;;0.88;0.80;;;11.80;99.90;;;;;;5073917;28;20021;-83
2021/11/03 03:09:04;;;;;;;0.82;0.82;;;11.70;99.90;;;;;;5074582;28;20032;-82
2021/11/03 03:11:32;;;;;;;1.10;0.98;;;11.70;99.90;;;;;;5074482;28;20021;-83
2021/11/03 03:13:58;;;;;;;1.05;0.85;;;11.70;99.90;;;;;;5056559;28;20032;-82
2021/11/03 03:16:25;;;;;;;2.38;1.15;;;11.70;99.90;;;;;;5074113;28;20386;-82
2021/11/03 03:18:54;;;;;;;3.25;1.02;;;11.70;99.90;;;;;;5074433;28;20098;-83
2021/11/03 03:21:21;;;;;;;2.17;1.00;;;11.70;99.90;;;;;;5074305;28;20040;-83
2021/11/03 03:23:48;;;;;;;5.75;1.02;;;11.70;99.90;;;;;;5056308;28;20386;-82
2021/11/03 03:26:15;;;;;;;1.17;1.08;;;11.70;99.90;;;;;;5074099;28;20440;-82
2021/11/03 03:28:41;;;;;;;1.00;0.95;;;11.70;99.90;;;;;;5074233;28;20102;-82
2021/11/03 03:31:09;;;;;;;3.08;1.20;;;11.80;99.90;;;;;;5074111;28;20063;-82
2021/11/03 03:33:35;;;;;;;3.47;1.00;;;11.80;99.90;;;;;;5056176;28;20024;-82
2021/11/03 03:36:02;;;;;;;3.38;1.20;;;11.80;99.90;;;;;;5084002;28;20031;-82
2021/11/03 03:38:27;;;;;;;0.82;0.82;;;11.80;99.90;;;;;;5075995;28;20020;-82
2021/11/03 03:40:53;;;;;;;1.70;1.10;;;11.70;99.90;;;;;;5094045;28;20028;-82
2021/11/03 03:43:19;;;;;;;5.35;1.55;;;11.70;99.90;;;;;;5094121;28;20027;-82
2021/11/03 03:45:45;;;;;;;1.40;0.90;;;11.70;99.90;;;;;;5093978;28;20024;-82
2021/11/03 03:48:11;;;;;;;2.25;0.90;;;11.60;99.90;;;;;;5094072;28;20031;-83
2021/11/03 03:50:37;;;;;;;1.23;0.98;;;11.60;99.90;;;;;;5093962;28;20024;-83
2021/11/03 03:53:03;;;;;;;1.38;1.10;;;11.50;99.90;;;;;;5093857;28;20478;-82
2021/11/03 03:55:29;;;;;;;1.83;1.08;;;11.50;99.90;;;;;;5093771;28;20077;-82
2021/11/03 03:57:55;;;;;;;3.00;1.13;;;11.60;99.90;;;;;;5093649;28;20024;-82
2021/11/03 04:00:22;;;;;;;1.77;0.95;;;11.70;99.90;;;;;;5093739;28;20054;-82
2021/11/03 04:02:49;;;;;;;2.35;1.08;;;11.80;99.90;;;;;;5093682;28;20059;-82
2021/11/03 04:05:15;;;;;;;1.60;0.85;;;11.80;99.90;;;;;;5089816;28;20021;-83
2021/11/03 04:07:41;;;;;;;3.65;1.00;;;11.90;99.90;;;;;;5073214;28;20035;-82
2021/11/03 04:10:08;;;;;;;2.90;1.23;;;12.00;99.90;;;;;;5073429;28;20028;-83
2021/11/03 04:12:34;;;;;;;1.88;0.80;;;12.00;99.90;;;;;;5073314;28;20086;-82
2021/11/03 04:15:03;;;;;;;2.13;0.65;;;12.00;99.90;;;;;;5073273;28;20029;-82
2021/11/03 04:17:29;;;;;;;3.33;0.95;;;12.00;99.90;;;;;;5071360;28;20032;-83
2021/11/03 04:19:54;;;;;;;3.08;0.82;;;12.10;99.90;;;;;;5072914;28;20020;-83
2021/11/03 04:22:20;;;;;;;1.25;0.80;;;12.00;99.90;;;;;;5072879;28;20079;-83
2021/11/03 04:24:46;;;;;;;1.98;1.10;;;12.00;99.90;;;;;;5071701;28;20055;-83
2021/11/03 04:27:12;;;;;;;1.45;0.80;;;12.00;99.90;;;;;;5072937;28;20029;-82
2021/11/03 04:29:38;;;;;;;2.03;1.00;;;12.00;99.90;;;;;;5071652;28;20644;-82
2021/11/03 04:32:04;;;;;;;2.63;1.10;;;12.00;99.90;;;;;;5071831;28;20046;-82
2021/11/03 04:34:30;;;;;;;1.05;0.85;;;12.00;99.90;;;;;;5073193;28;20115;-83
2021/11/03 04:36:56;;;;;;;1.17;0.90;;;12.00;99.90;;;;;;5090766;28;20106;-83
2021/11/03 04:39:21;;;;;;;1.63;0.88;;;12.00;99.90;;;;;;5093237;28;20051;-83
2021/11/03 04:41:47;;;;;;;6.28;0.88;;;12.00;99.90;;;;;;5093172;28;20449;-83
2021/11/03 04:44:13;;;;;;;4.53;0.90;;;12.00;99.90;;;;;;5092997;28;20024;-83
2021/11/03 04:46:39;;;;;;;1.67;1.05;;;11.90;99.90;;;;;;5092903;28;20604;-83
2021/11/03 04:49:05;;;;;;;1.65;0.80;;;11.90;99.90;;;;;;5075076;28;20074;-83
2021/11/03 04:51:31;;;;;;;2.70;1.00;;;12.00;99.90;;;;;;5093017;28;20083;-83
2021/11/03 04:53:59;;;;;;;7.25;1.00;;;12.00;99.90;;;;;;5093017;28;20012;-83
2021/11/03 04:56:25;;;;;;;3.40;1.08;;;12.00;99.90;;;;;;5092758;28;20028;-82
2021/11/03 04:58:51;;;;;;;2.67;1.02;;;12.00;99.90;;;;;;5093061;28;20024;-83
2021/11/03 05:01:22;;;;;;;5.32;0.85;;;12.00;99.90;;;;;;5092975;28;20073;-82
2021/11/03 05:03:53;;;;;;;2.00;0.80;;;12.10;99.90;;;;;;5093012;28;20012;-83
2021/11/03 05:06:21;;;;;;;3.03;0.88;;;12.10;99.90;;;;;;5080231;28;20478;-82
2021/11/03 05:08:48;;;;;;;3.13;0.90;;;12.10;99.90;;;;;;5072699;28;20509;-82
2021/11/03 05:11:14;;;;;;;1.42;0.80;;;12.20;99.90;;;;;;5072648;28;20028;-82
2021/11/03 05:13:40;;;;;;;1.92;0.80;;;12.20;99.90;;;;;;5072632;28;20025;-81
2021/11/03 05:16:06;;;;;;;1.95;0.85;;;12.30;99.90;;;;;;5072263;28;20035;-82
2021/11/03 05:18:32;;;;;;;2.08;0.65;;;12.30;99.90;;;;;;5072411;28;20535;-83
2021/11/03 05:20:58;;;;;;;2.63;0.85;;;12.30;99.90;;;;;;5072581;28;20390;-83
2021/11/03 05:23:25;;;;;;;5.10;0.82;;;12.30;99.90;;;;;;5072521;28;20097;-83
2021/11/03 05:25:52;;;;;;;1.48;0.60;;;12.30;99.90;;;;;;5072425;28;20051;-83
2021/11/03 05:28:18;;;;;;;1.45;0.95;;;12.30;99.90;;;;;;5072598;28;20021;-83
2021/11/03 05:30:43;;;;;;;1.10;0.80;;;12.30;99.90;;;;;;5075628;28;20640;-83
2021/11/03 05:33:09;;;;;;;0.77;0.77;;;12.40;99.90;;;;;;5076528;28;20104;-83
2021/11/03 05:35:35;;;;;;;3.67;0.70;;;12.40;99.90;;;;;;5082833;28;20024;-83
2021/11/03 05:38:01;;;;;;;1.27;0.88;;;12.40;99.90;;;;;;5078347;28;20031;-83
2021/11/03 05:40:28;;;;;;;2.40;1.02;;;12.40;99.90;;;;;;5096524;28;20106;-83
2021/11/03 05:42:55;;;;;;;3.83;1.25;;;12.50;99.90;;;;;;5096390;28;20448;-83
2021/11/03 05:45:21;;;;;;;2.13;0.80;;;12.40;99.90;;;;;;5096294;28;20016;-83
2021/11/03 05:47:47;;;;;;;2.08;0.90;;;12.40;99.90;;;;;;5096308;28;20028;-84
2021/11/03 05:50:21;;;;;;;2.97;1.08;;;12.40;99.90;;;;;;5096275;28;20089;-82
2021/11/03 05:52:47;;;;;;;3.38;1.00;;;12.40;99.90;;;;;;5095173;28;20017;-83
2021/11/03 05:55:13;;;;;;;1.05;0.93;;;12.40;99.90;;;;;;5092944;28;20024;-82
2021/11/03 05:57:40;;;;;;;3.28;1.10;;;12.30;99.90;;;;;;5095909;28;20023;-83
2021/11/03 06:00:16;;;;;;;2.17;1.02;;;12.30;99.90;;;;;;5077603;28;20081;-82
2021/11/03 06:02:42;;;;;;;1.48;0.98;;;12.30;99.90;;;;;;5096167;28;20047;-82
2021/11/03 06:05:09;;;;;;;0.90;0.90;;;12.20;99.90;;;;;;5093166;28;20492;-82
2021/11/03 06:07:36;;;;;;;3.05;1.27;;;12.20;99.90;;;;;;5074393;28;20036;-83
2021/11/03 06:10:03;;;;;;;2.47;0.90;;;12.20;99.90;;;;;;5075694;28;20017;-82
2021/11/03 06:12:29;;;;;;;3.10;0.90;;;12.20;99.90;;;;;;5075710;28;20116;-83
2021/11/03 06:14:55;;;;;;;4.72;0.98;;;12.10;99.90;;;;;;5073629;28;20509;-76
2021/11/03 06:17:24;;;;;;;2.97;1.05;;;12.20;99.90;;;;;;5073703;28;20474;-76
2021/11/03 06:19:50;;;;;;;3.28;1.10;;;12.20;99.90;;;;;;5073006;28;20039;-76
2021/11/03 06:22:15;;;;;;;2.33;0.90;;;12.20;99.90;;;;;;5072276;28;20044;-82
2021/11/03 06:24:42;;;;;;;2.17;1.23;;;12.20;99.90;;;;;;5070231;28;20382;-82
2021/11/03 06:27:08;;;;;;;1.88;1.42;;;12.10;99.90;;;;;;5070659;28;20039;-82
2021/11/03 06:29:34;;;;;;;8.82;1.70;;;12.10;99.90;;;;;;5071244;28;20028;-82
2021/11/03 06:32:00;;;;;;;4.20;1.80;;;12.10;99.90;;;;;;5071963;28;20039;-82
2021/11/03 06:34:25;;;;;;;3.15;2.00;;;12.00;99.90;;;;;;5072092;28;20419;-81
2021/11/03 06:36:51;;;;;;;1.70;1.58;;;12.00;99.90;;;;;;5071102;28;20029;-83
2021/11/03 06:39:17;;;;;;;5.63;2.20;;;12.00;99.90;;;;;;5073418;28;20102;-82
2021/11/03 06:41:45;;;;;;;5.20;2.00;;;11.90;99.90;;;;;;5072730;28;20059;-83
2021/11/03 06:44:11;;;;;;;3.58;2.10;;;11.90;99.90;;;;;;5072373;28;20024;-82
2021/11/03 06:46:37;;;;;;;3.10;2.13;;;11.90;99.90;;;;;;5041377;28;20028;-82
2021/11/03 06:49:04;;;;;;;4.78;2.58;;;11.90;99.90;;;;;;5053578;28;20067;-82
2021/11/03 06:51:30;;;;;;;4.18;1.95;;;11.90;99.90;;;;;;5053686;28;20025;-82
2021/11/03 06:53:55;;;;;;;3.80;2.30;;;11.90;99.90;;;;;;5035997;28;20031;-83
2021/11/03 06:56:21;;;;;;;6.88;2.08;;;11.80;99.90;;;;;;5054761;28;20055;-81
2021/11/03 06:58:47;;;;;;;4.07;2.65;;;11.80;99.90;;;;;;5053509;28;20502;-82
2021/11/03 07:01:16;;;;;;;7.38;2.40;;;11.80;99.90;;;;;;5053528;28;20483;-82
2021/11/03 07:03:45;;;;;;;3.30;2.00;;;11.70;99.90;;;;;;5035701;28;20021;-83
2021/11/03 07:06:13;;;;;;;2.53;1.77;;;11.70;99.90;;;;;;5056091;28;20074;-82
2021/11/03 07:08:38;;;;;;;4.45;1.80;;;11.70;99.90;;;;;;5074724;28;20108;-82
2021/11/03 07:11:04;;;;;;;3.38;1.70;;;11.80;99.90;;;;;;5074574;28;20052;-82
2021/11/03 07:13:30;;;;;;;2.53;1.50;;;11.80;99.90;;;;;;5074489;28;20029;-82
2021/11/03 07:15:56;;;;;;;2.92;1.40;;;11.90;99.90;;;;;;5074441;28;20034;-82
2021/11/03 07:18:23;;;;;;;1.70;1.40;;;11.90;99.90;;;;;;5073669;28;20032;-83
2021/11/03 07:20:50;;;;;;;2.10;1.30;;;12.00;99.90;;;;;;5073498;28;20025;-83
2021/11/03 07:23:18;;;;;;;4.65;2.08;;;12.00;99.90;;;;;;5072761;28;20070;-83
2021/11/03 07:25:45;;;;;;;3.30;3.10;;;12.00;99.90;;;;;;5073036;28;20190;-83
2021/11/03 07:28:12;;;;;;;1.90;1.80;;;12.00;99.90;;;;;;5071803;28;20093;-83
2021/11/03 07:30:39;;;;;;;4.55;2.80;;;12.00;99.90;;;;;;5072817;28;20470;-82
2021/11/03 07:33:07;;;;;;;5.20;2.50;;;12.10;99.90;;;;;;5072839;28;20013;-82
2021/11/03 07:35:33;;;;;;;3.88;1.70;;;12.10;99.90;;;;;;5072863;28;20020;-82
2021/11/03 07:37:59;;;;;;;1.33;1.10;;;12.20;99.90;;;;;;5072728;28;20029;-83
2021/11/03 07:40:30;;;;;;;2.10;1.30;;;12.20;99.90;;;;;;5072792;28;20047;-82
2021/11/03 07:42:59;;;;;;;4.90;1.98;;;12.20;99.90;;;;;;5072707;28;20021;-82
2021/11/03 07:45:26;;;;;;;2.33;2.05;;;12.30;99.90;;;;;;5072500;28;20021;-82
2021/11/03 07:47:52;;;;;;;1.77;1.65;;;12.30;99.90;;;;;;5054574;28;20097;-83
2021/11/03 07:50:22;;;;;;;1.77;1.67;;;12.30;99.90;;;;;;5072556;28;20020;-83
2021/11/03 07:52:48;;;;;;;2.05;1.38;;;12.40;99.90;;;;;;5072406;28;20052;-82
2021/11/03 07:55:14;;;;;;;1.95;1.20;;;12.50;99.90;;;;;;5072340;28;20067;-82
2021/11/03 07:57:40;;;;;;;2.72;1.05;;;12.60;99.90;;;;;;5072547;28;20036;-81
2021/11/03 08:00:09;;;;;;;7.90;1.40;;;12.70;99.90;;;;;;5073375;28;20070;-82
2021/11/03 08:02:37;;;;;;;4.15;1.30;;;12.70;99.90;;;;;;5072884;28;20020;-82
2021/11/03 08:05:04;;;;;;;4.22;2.05;;;12.70;99.90;;;;;;5071319;28;20020;-77
2021/11/03 08:07:29;;;;;;;3.88;2.70;;;12.70;99.90;;;;;;5069994;28;20591;-77
2021/11/03 08:09:57;;;;;;;3.45;1.50;;;12.80;99.90;;;;;;5072273;28;20024;-77
2021/11/03 08:12:22;;;;;;;2.28;1.30;;;12.80;99.90;;;;;;5072110;28;20024;-77
2021/11/03 08:14:48;;;;;;;4.43;1.92;;;12.90;99.90;;;;;;5071109;28;20097;-77
2021/11/03 08:17:16;;;;;;;5.22;2.38;;;12.90;99.90;;;;;;5072759;28;20024;-77
2021/11/03 08:19:47;;;;;;;3.33;1.58;;;13.00;99.90;;;;;;5072733;28;20474;-77
2021/11/03 08:22:19;;;;;;;2.60;1.67;;;13.00;99.90;;;;;;5072732;28;20052;-76
2021/11/03 08:24:46;;;;;;;1.73;1.30;;;13.20;99.90;;;;;;5072881;28;20029;-77
2021/11/03 08:27:12;;;;;;;1.95;1.30;;;13.20;99.90;;;;;;5071466;28;20562;-77
2021/11/03 08:29:39;;;;;;;1.77;1.67;;;13.20;99.90;;;;;;5072932;28;20024;-77
2021/11/03 08:32:09;;;;;;;3.85;2.28;;;13.20;99.90;;;;;;5066162;28;20028;-77
2021/11/03 08:34:37;;;;;;;4.43;1.58;;;13.30;99.90;;;;;;5061227;28;20035;-77
2021/11/03 08:37:06;;;;;;;5.53;1.80;;;13.30;99.90;;;;;;5063183;28;20020;-77
2021/11/03 08:39:38;;;;;;;1.70;1.58;;;13.40;99.90;;;;;;5043771;28;20016;-77
2021/11/03 08:42:04;;;;;;;4.53;1.77;;;13.40;99.90;;;;;;5061921;28;20045;-77
2021/11/03 08:44:30;;;;;;;2.78;1.20;;;13.40;99.90;;;;;;5062009;28;20040;-76
2021/11/03 08:46:57;;;;;;;4.93;1.10;;;13.50;99.90;;;;;;5060227;28;20114;-76
2021/11/03 08:49:22;;;;;;;4.32;1.58;;;13.50;99.90;;;;;;5040071;28;20032;-77
2021/11/03 08:51:49;;;;;;;3.50;2.13;;;13.50;99.90;;;;;;5062615;28;20021;-77
2021/11/03 08:54:17;;;;;;;2.80;1.98;;;13.50;99.90;;;;;;5059938;28;20033;-77
2021/11/03 08:56:43;;;;;;;2.55;1.35;;;13.50;99.90;;;;;;5060768;28;20020;-77
2021/11/03 08:59:09;;;;;;;2.35;1.90;;;13.50;99.90;;;;;;5043895;28;20128;-77
2021/11/03 09:01:39;;;;;;;2.38;1.48;;;13.50;99.90;;;;;;5060114;28;20028;-77
2021/11/03 09:04:06;;;;;;;5.40;1.50;;;13.60;99.90;;;;;;5052667;28;20032;-77
2021/11/03 09:06:32;;;;;;;1.38;1.10;;;13.60;99.90;;;;;;5093106;28;20396;-77
2021/11/03 09:08:58;;;;;;;2.65;1.10;;;13.70;99.90;;;;;;5099352;28;20028;-77
2021/11/03 09:11:25;;;;;;;2.63;1.00;;;13.70;99.90;;;;;;5099333;28;20106;-77
2021/11/03 09:13:51;;;;;;;4.50;1.50;;;13.70;99.90;;;;;;5092925;28;20028;-76
2021/11/03 09:16:17;;;;;;;2.47;2.10;;;13.70;99.90;;;;;;5078918;28;20029;-77
2021/11/03 09:18:43;;;;;;;1.17;1.02;;;13.70;99.90;;;;;;5079072;28;20073;-77
2021/11/03 09:21:09;;;;;;;7.13;1.20;;;13.70;99.90;;;;;;5060763;28;20025;-77
2021/11/03 09:23:36;;;;;;;2.83;1.60;;;13.70;99.90;;;;;;5077697;28;20045;-76
2021/11/03 09:26:02;;;;;;;3.75;1.10;;;13.70;99.90;;;;;;5058676;28;20067;-76
2021/11/03 09:28:32;;;;;;;1.58;1.13;;;13.70;99.90;;;;;;5074852;28;20494;-76
2021/11/03 09:30:59;;;;;;;5.95;1.45;;;13.70;99.90;;;;;;5075249;28;20016;-82
2021/11/03 09:33:25;;;;;;;3.97;1.35;;;13.60;99.90;;;;;;5055827;28;20357;-81
2021/11/03 09:35:55;;;;;;;6.80;1.13;;;13.60;99.90;;;;;;5064410;28;20017;-81
2021/11/03 09:38:27;;;;;;;5.68;1.20;;;13.60;99.90;;;;;;5053186;28;20056;-80
2021/11/03 09:41:11;;;;;;;2.40;1.00;;;13.60;99.90;;;;;;5055051;28;20025;-81
2021/11/03 09:43:44;;;;;;;7.40;1.40;;;13.60;99.90;;;;;;5055305;28;20021;-79
2021/11/03 09:46:42;;;;;;;3.03;1.10;;;13.60;99.90;;;;;;5055768;28;20028;-79
2021/11/03 09:49:15;;;;;;;3.47;1.80;;;13.50;99.90;;;;;;5044060;28;20048;-79
2021/11/03 09:51:44;;;;;;;3.35;2.10;;;13.50;99.90;;;;;;5054766;28;20483;-79
2021/11/03 09:54:19;;;;;;;4.63;1.02;;;13.50;99.90;;;;;;5053515;28;20028;-78
2021/11/03 09:56:52;;;;;;;6.03;2.90;;;13.40;99.90;;;;;;5055751;28;20037;-79
2021/11/03 09:59:56;;;;;;;20.15;6.72;;;13.40;99.90;;;;;;5056519;28;20052;-80
2021/11/03 10:02:25;;;;;;;11.93;6.35;;;13.40;99.90;;;;;;5038133;28;20330;-80
2021/11/03 10:05:22;;;;;;;20.70;9.32;;;13.30;99.90;;;;;;5053173;28;20032;-80
2021/11/03 10:08:13;;;;;;;75.95;29.65;;;13.30;99.90;;;;;;5052619;28;20040;-81
2021/11/03 10:10:43;;;;;;;61.70;24.30;;;13.30;99.90;;;;;;5072603;28;20028;-80
2021/11/03 10:13:19;;;;;;;43.70;17.92;;;13.20;99.90;;;;;;5072897;28;20108;-80
2021/11/03 10:16:04;;;;;;;41.17;17.13;;;13.20;99.90;;;;;;5072235;28;20028;-80
2021/11/03 10:18:36;;;;;;;52.20;23.83;;;13.20;99.90;;;;;;5068327;28;20070;-79
2021/11/03 10:21:21;;;;;;;28.83;15.02;;;13.20;99.90;;;;;;5070143;28;20024;-79
2021/11/03 10:23:52;;;;;;;28.70;14.85;;;13.10;99.90;;;;;;5068096;28;20513;-80
2021/11/03 10:26:18;;;;;;;23.95;10.30;;;13.20;99.90;;;;;;5069946;28;20016;-80
2021/11/03 10:28:52;;;;;;;15.85;8.27;;;13.10;99.90;;;;;;5070264;28;20033;-80
2021/11/03 10:31:31;;;;;;;17.13;8.77;;;13.10;99.90;;;;;;5069926;28;20016;-80
2021/11/03 10:34:05;;;;;;;10.20;5.93;;;13.00;99.90;;;;;;5069747;28;20106;-79
2021/11/03 10:36:40;;;;;;;43.75;19.08;;;13.00;99.90;;;;;;5068047;28;20363;-79
2021/11/03 10:39:21;;;;;;;24.38;7.97;;;13.00;99.90;;;;;;5069389;28;20482;-79
2021/11/03 10:42:02;;;;;;;16.70;7.63;;;13.00;99.90;;;;;;5070474;28;20021;-79
2021/11/03 10:44:32;;;;;;;6.75;3.95;;;13.00;99.90;;;;;;5071792;28;20020;-79
2021/11/03 10:47:10;;;;;;;7.80;4.40;;;12.90;99.90;;;;;;5066336;28;20095;-80
2021/11/03 10:49:52;;;;;;;6.43;4.28;;;13.00;99.90;;;;;;5050825;28;20033;-80
2021/11/03 10:52:24;;;;;;;2.47;2.28;;;13.00;99.90;;;;;;5069276;28;20028;-80
2021/11/03 10:55:12;;;;;;;6.43;3.35;;;13.00;99.90;;;;;;5069045;28;20035;-80
2021/11/03 10:57:42;;;;;;;4.30;2.42;;;13.00;99.90;;;;;;5051282;28;20505;-80
2021/11/03 11:00:16;;;;;;;3.05;1.55;;;13.00;99.90;;;;;;5069104;28;20021;-80
2021/11/03 11:02:50;;;;;;;3.08;1.85;;;12.90;99.90;;;;;;5068643;28;20494;-82
2021/11/03 11:05:20;;;;;;;2.03;1.60;;;13.00;99.90;;;;;;5069308;28;20032;-79
2021/11/03 11:07:52;;;;;;;3.13;1.92;;;12.90;99.90;;;;;;5069769;28;20544;-79
2021/11/03 11:10:41;;;;;;;6.65;2.78;;;13.00;99.90;;;;;;5069079;28;20017;-80
2021/11/03 11:13:21;;;;;;;4.32;3.33;;;13.00;99.90;;;;;;5069074;28;20020;-80
2021/11/03 11:15:47;;;;;;;8.75;2.80;;;13.00;99.90;;;;;;5068948;28;20024;-79
2021/11/03 11:18:41;;;;;;;3.20;1.50;;;13.00;99.90;;;;;;5068751;28;20120;-79
2021/11/03 11:21:24;;;;;;;1.38;1.27;;;13.00;99.90;;;;;;5068349;28;20490;-80
2021/11/03 11:24:00;;;;;;;3.25;1.00;;;12.90;99.90;;;;;;5067212;28;20051;-79
2021/11/03 11:26:37;;;;;;;6.22;3.00;;;12.90;99.90;;;;;;5069779;28;20033;-79
2021/11/03 11:29:15;;;;;;;4.32;2.30;;;12.90;99.90;;;;;;5068012;28;20027;-79
2021/11/03 11:31:49;;;;;;;3.65;1.40;;;12.90;99.90;;;;;;5068353;28;20094;-81
2021/11/03 11:34:41;;;;;;;1.48;1.40;;;12.80;99.90;;;;;;5050686;28;20120;-79
2021/11/03 11:37:32;;;;;;;4.22;2.28;;;12.80;99.90;;;;;;5087250;28;20020;-80
2021/11/03 11:40:17;;;;;;;2.47;2.25;;;12.80;99.90;;;;;;5089337;28;20020;-79
2021/11/03 11:42:56;;;;;;;2.08;1.60;;;12.80;99.90;;;;;;5088696;28;20052;-80
2021/11/03 11:45:35;;;;;;;4.15;2.10;;;12.80;99.90;;;;;;5073827;28;20438;-79
2021/11/03 11:48:06;;;;;;;3.75;1.30;;;12.70;99.90;;;;;;5031858;28;20025;-81
2021/11/03 11:50:47;;;;;;;2.13;1.50;;;12.70;99.90;;;;;;5051133;28;20033;-81
2021/11/03 11:53:39;;;;;;;2.70;1.58;;;12.70;99.90;;;;;;5051213;28;20021;-81
2021/11/03 11:56:15;;;;;;;3.20;1.13;;;12.70;99.90;;;;;;4995846;28;20522;-80
2021/11/03 11:58:50;;;;;;;3.03;1.10;;;12.70;99.90;;;;;;5050667;28;20112;-79
2021/11/03 12:01:24;;;;;;;1.27;1.02;;;12.70;99.90;;;;;;5050266;28;20040;-78
2021/11/03 12:03:52;;;;;;;1.50;1.40;;;12.70;99.90;;;;;;5050534;28;20079;-78
2021/11/03 12:06:19;;;;;;;3.30;2.03;;;12.60;99.90;;;;;;5075984;28;20529;-79
2021/11/03 12:08:50;;;;;;;5.22;3.20;;;12.60;99.90;;;;;;5090608;28;20490;-79
2021/11/03 12:11:48;;;;;;;14.40;4.93;;;12.70;99.90;;;;;;5090809;28;20570;-79
2021/11/03 12:14:42;;;;;;;9.27;4.72;;;12.60;99.90;;;;;;5063532;28;20097;-79
2021/11/03 12:17:08;;;;;;;4.40;3.65;;;12.70;99.90;;;;;;5090093;28;20028;-80
2021/11/03 12:19:37;;;;;;;8.10;3.90;;;12.70;99.90;;;;;;5072850;28;20413;-80
2021/11/03 12:22:11;;;;;;;5.72;2.60;;;12.70;99.90;;;;;;5090407;28;20429;-79
2021/11/03 12:24:42;;;;;;;2.83;2.15;;;12.70;99.90;;;;;;5089703;28;20020;-79
2021/11/03 12:27:24;;;;;;;4.45;1.98;;;12.70;99.90;;;;;;5070852;28;20035;-81
2021/11/03 12:30:08;;;;;;;5.78;2.65;;;12.70;99.90;;;;;;5071453;28;20036;-79
2021/11/03 12:32:43;;;;;;;6.30;1.40;;;12.60;99.90;;;;;;5071677;28;20028;-79
2021/11/03 12:35:17;;;;;;;6.50;2.28;;;12.60;99.90;;;;;;5086048;28;20024;-80
2021/11/03 12:37:50;;;;;;;4.20;2.15;;;12.60;99.90;;;;;;5067646;28;20119;-79
2021/11/03 12:40:42;;;;;;;4.80;2.20;;;12.60;99.90;;;;;;5068500;28;20505;-79
2021/11/03 12:43:31;;;;;;;3.67;1.70;;;12.70;99.90;;;;;;5070074;28;20532;-80
2021/11/03 12:46:06;;;;;;;2.40;2.20;;;12.70;99.90;;;;;;5069705;28;20558;-80
2021/11/03 12:48:58;;;;;;;2.47;2.28;;;12.70;99.90;;;;;;5069716;28;20025;-79
2021/11/03 12:51:27;;;;;;;3.80;2.35;;;12.70;99.90;;;;;;5066121;28;20036;-79
2021/11/03 12:54:01;;;;;;;2.25;2.05;;;12.70;99.90;;;;;;5066438;28;20543;-80
2021/11/03 12:56:33;;;;;;;2.78;2.53;;;12.70;99.90;;;;;;5071498;28;20032;-80
2021/11/03 12:59:02;;;;;;;4.07;2.47;;;12.70;99.90;;;;;;5071924;28;20031;-80